NCAR-RAP Real-Time Weather Data

Output produced by METARs form (25 June 2022  03:56 UTC)
found at http://weather.rap.ucar.edu/surface/
 
KAPG 242119Z 13005KT 10SM BKN035 26/19 A3001 RMK LAST SLP165
KAPG 242000Z 21003KT 10SM SCT040 26/19 A3001 RMK SLP165 T02590186 57011 $
KAPG 241852Z VRB03KT 10SM BKN033 25/18 A3002 RMK SLP169
KAPG 241758Z 26003KT 10SM OVC032 25/18 A3003 RMK SLP172 60001 T02450178 10245 20193 58005 $
KAPG 241701Z VRB03KT 10SM OVC030 24/17 A3004 RMK SLP175 50002
KAPG 241558Z 29005KT 10SM OVC027 23/17 A3005 RMK AO2A SLP179 P0001 T02310170 $